Time;durP1;ratioP1;P1;durP2;ratioP2;P2;SDS_P1;SDS_P2;PMS_P1;PMS_P2;Temp;Humidity;BMP_temperature;BMP_pressure;BME280_temperature;BME280_humidity;BME280_pressure;Samples;Min_cycle;Max_cycle;Signal;HPM_P1;HPM_P2
2023/01/22 00:01:32;;;;;;;41.20;28.40;;;;;;;0.03;100.00;97343.37;110448;1244;70585;-68
2023/01/22 00:04:01;;;;;;;53.30;34.10;;;;;;;0.03;100.00;97343.72;110252;1239;69323;-69
2023/01/22 00:06:30;;;;;;;47.00;33.60;;;;;;;0.02;100.00;97343.60;110353;1242;69155;-69
2023/01/22 00:09:02;;;;;;;46.60;33.10;;;;;;;0.01;100.00;97346.20;110535;1242;59688;-68
2023/01/22 00:11:31;;;;;;;42.80;30.90;;;;;;;0.01;100.00;97349.27;110422;1238;59741;-69
2023/01/22 00:14:00;;;;;;;54.80;38.30;;;;;;;-0.01;100.00;97353.27;110481;1241;69828;-69
2023/01/22 00:16:29;;;;;;;48.40;34.90;;;;;;;-0.05;100.00;97353.73;110596;1241;69824;-69
2023/01/22 00:18:58;;;;;;;53.10;36.10;;;;;;;-0.07;100.00;97349.17;110435;1241;69422;-69
2023/01/22 00:21:27;;;;;;;41.00;29.00;;;;;;;-0.07;100.00;97352.41;110460;1241;59750;-69
2023/01/22 00:23:56;;;;;;;42.80;30.10;;;;;;;-0.07;100.00;97351.56;110505;1240;59663;-69
2023/01/22 00:26:25;;;;;;;41.80;31.20;;;;;;;-0.06;100.00;97356.15;110510;1241;72446;-69
2023/01/22 00:28:55;;;;;;;55.60;38.50;;;;;;;-0.05;100.00;97360.59;110436;1241;69427;-69
2023/01/22 00:31:24;;;;;;;47.00;33.40;;;;;;;-0.04;100.00;97358.34;110466;1241;69244;-69
2023/01/22 00:33:53;;;;;;;35.80;28.90;;;;;;;-0.02;100.00;97363.05;110292;1238;60097;-69
2023/01/22 00:36:24;;;;;;;48.50;34.20;;;;;;;0.02;100.00;97367.41;110531;1242;59686;-69
2023/01/22 00:38:53;;;;;;;49.00;35.80;;;;;;;0.04;100.00;97368.86;110472;1242;70433;-69
2023/01/22 00:41:22;;;;;;;37.70;28.10;;;;;;;0.07;100.00;97372.02;110505;1242;69662;-69
2023/01/22 00:43:51;;;;;;;50.80;36.30;;;;;;;0.10;100.00;97360.45;110402;1238;69242;-69
2023/01/22 00:46:20;;;;;;;51.70;38.60;;;;;;;0.13;100.00;97356.25;110433;1238;59670;-69
2023/01/22 00:48:50;;;;;;;55.00;39.40;;;;;;;0.16;100.00;97366.77;110520;1238;59705;-69
2023/01/22 00:51:20;;;;;;;67.50;46.00;;;;;;;0.17;100.00;97370.66;110498;1240;71361;-70
2023/01/22 00:53:49;;;;;;;59.80;40.60;;;;;;;0.19;100.00;97372.17;110519;1238;70058;-70
2023/01/22 00:56:18;;;;;;;58.20;39.40;;;;;;;0.21;100.00;97376.02;110641;1238;69199;-70
2023/01/22 00:58:47;;;;;;;52.70;37.00;;;;;;;0.25;100.00;97381.91;110565;1238;59782;-70
2023/01/22 01:01:17;;;;;;;62.50;42.40;;;;;;;0.28;100.00;97379.24;110257;1245;59702;-69
2023/01/22 01:03:45;;;;;;;55.00;40.70;;;;;;;0.31;100.00;97381.38;110466;1241;71403;-69
2023/01/22 01:06:20;;;;;;;56.70;39.50;;;;;;;0.34;100.00;97386.57;110441;1240;70290;-69
2023/01/22 01:08:50;;;;;;;65.80;46.00;;;;;;;0.39;100.00;97385.73;110232;1241;68333;-70
2023/01/22 01:11:24;;;;;;;;;;;;;;;0.44;100.00;97389.35;110427;1238;59737;-69
2023/01/22 01:13:54;;;;;;;61.90;41.10;;;;;;;0.49;100.00;97391.94;110278;1242;59724;-70
2023/01/22 01:16:28;;;;;;;57.80;38.60;;;;;;;0.53;100.00;97388.39;110516;1239;71209;-70
2023/01/22 01:19:04;;;;;;;49.60;37.60;;;;;;;0.57;100.00;97390.16;110563;1242;69325;-70
2023/01/22 01:21:33;;;;;;;56.90;40.50;;;;;;;0.57;100.00;97383.44;110572;1238;69280;-70
2023/01/22 01:24:03;;;;;;;48.20;34.40;;;;;;;0.59;100.00;97377.02;110144;1248;556979;-70
2023/01/22 01:26:34;;;;;;;53.70;38.20;;;;;;;0.62;100.00;97382.05;110245;1243;59720;-70
2023/01/22 01:29:05;;;;;;;57.80;41.80;;;;;;;0.65;100.00;97381.13;110269;1238;70912;-70
2023/01/22 01:31:35;;;;;;;61.50;45.60;;;;;;;0.66;100.00;97376.48;110401;1240;69888;-70
2023/01/22 01:34:06;;;;;;;58.90;44.30;;;;;;;0.66;100.00;97378.87;110358;1240;68613;-70
2023/01/22 01:36:36;;;;;;;63.80;46.60;;;;;;;0.66;100.00;97378.17;110488;1244;59666;-70
2023/01/22 01:39:21;;;;;;;58.20;41.60;;;;;;;0.66;100.00;97379.86;110546;1241;59662;-70
2023/01/22 01:41:50;;;;;;;74.20;50.90;;;;;;;0.67;100.00;97382.75;110409;1241;71826;-70
2023/01/22 01:44:22;;;;;;;68.80;49.70;;;;;;;0.69;100.00;97383.73;110546;1242;67736;-70
2023/01/22 01:47:12;;;;;;;70.70;47.20;;;;;;;0.69;100.00;97381.31;110466;1238;69086;-69
2023/01/22 01:49:50;;;;;;;70.00;50.80;;;;;;;0.69;100.00;97385.60;110549;1242;59665;-69
2023/01/22 01:52:20;;;;;;;67.60;46.50;;;;;;;0.69;100.00;97388.36;110607;1240;59728;-70
2023/01/22 01:54:56;;;;;;;56.90;40.00;;;;;;;0.70;100.00;97388.52;110337;1242;71267;-70
2023/01/22 01:57:31;;;;;;;65.00;47.90;;;;;;;0.70;100.00;97387.64;110512;1241;69111;-70
2023/01/22 02:00:09;;;;;;;56.00;37.00;;;;;;;0.67;100.00;97388.06;110427;1242;68479;-70
2023/01/22 02:02:44;;;;;;;67.20;47.90;;;;;;;0.65;100.00;97382.84;110347;1241;59663;-70
2023/01/22 02:05:14;;;;;;;61.10;44.70;;;;;;;0.63;100.00;97380.51;110278;1242;59693;-70
2023/01/22 02:07:44;;;;;;;63.30;42.10;;;;;;;0.61;100.00;97379.36;110406;1238;71784;-70
2023/01/22 02:10:14;;;;;;;67.80;45.60;;;;;;;0.62;100.00;97381.05;110449;1240;68537;-69
2023/01/22 02:12:46;;;;;;;63.20;41.90;;;;;;;0.63;100.00;97384.29;110428;1238;69581;-69
2023/01/22 02:15:16;;;;;;;62.90;41.20;;;;;;;0.62;100.00;97381.91;110614;1240;59695;-69
2023/01/22 02:17:49;;;;;;;58.50;44.80;;;;;;;0.63;100.00;97381.69;110248;1238;59664;-69
2023/01/22 02:20:18;;;;;;;;;;;;;;;0.63;100.00;97382.54;110330;1242;71439;-69
2023/01/22 02:22:48;;;;;;;61.70;42.10;;;;;;;0.63;100.00;97377.23;110417;1240;68620;-69
2023/01/22 02:25:19;;;;;;;67.40;45.30;;;;;;;0.64;100.00;97373.94;110376;1238;68367;-69
2023/01/22 02:27:48;;;;;;;;;;;;;;;0.64;100.00;97375.30;110268;1242;59747;-70
2023/01/22 02:30:20;;;;;;;55.50;38.30;;;;;;;0.64;100.00;97378.40;110320;1238;59701;-69
2023/01/22 02:32:52;;;;;;;63.50;43.70;;;;;;;0.65;100.00;97377.34;110376;1238;70649;-70
2023/01/22 02:35:23;;;;;;;55.50;40.30;;;;;;;0.68;100.00;97385.46;110398;1242;68613;-69
2023/01/22 02:37:54;;;;;;;;;;;;;;;0.71;100.00;97388.63;110369;1242;69280;-70
2023/01/22 02:40:23;;;;;;;64.80;44.20;;;;;;;0.71;100.00;97392.06;110618;1238;59674;-69
2023/01/22 02:42:55;;;;;;;58.40;40.00;;;;;;;0.63;100.00;97394.05;110338;1247;59601;-70
2023/01/22 02:45:25;;;;;;;65.50;44.50;;;;;;;0.55;100.00;97397.73;110529;1241;71206;-70
2023/01/22 02:47:55;;;;;;;55.60;36.90;;;;;;;0.52;100.00;97402.66;110401;1241;69136;-70
2023/01/22 02:50:25;;;;;;;57.60;38.20;;;;;;;0.49;100.00;97397.59;110605;1241;69444;-70
2023/01/22 02:52:55;;;;;;;57.50;39.50;;;;;;;0.48;100.00;97393.86;110433;1241;59749;-70
2023/01/22 02:55:26;;;;;;;62.80;43.50;;;;;;;0.48;100.00;97396.08;110494;1240;59671;-70
2023/01/22 02:57:57;;;;;;;75.80;49.90;;;;;;;0.46;100.00;97394.95;110409;1241;71798;-70
2023/01/22 03:00:27;;;;;;;93.30;61.40;;;;;;;0.44;100.00;97401.34;110615;1241;68517;-70
2023/01/22 03:02:57;;;;;;;88.60;56.80;;;;;;;0.40;100.00;97393.09;110268;1245;68346;-70
2023/01/22 03:05:29;;;;;;;80.40;52.80;;;;;;;0.30;100.00;97393.59;110276;1242;59705;-70
2023/01/22 03:08:00;;;;;;;71.70;47.80;;;;;;;0.28;100.00;97395.70;110294;1242;59687;-70
2023/01/22 03:10:30;;;;;;;81.30;53.30;;;;;;;0.28;100.00;97404.45;110351;1242;71224;-70
2023/01/22 03:21:26;;;;;;;72.90;47.20;;;;;;;0.19;100.00;97413.82;110521;1241;59710;-69
2023/01/22 03:23:56;;;;;;;64.70;42.80;;;;;;;0.16;100.00;97413.39;110449;1242;70553;-70
2023/01/22 03:26:27;;;;;;;58.70;41.00;;;;;;;0.16;100.00;97415.13;110291;1242;69290;-70
2023/01/22 03:28:57;;;;;;;64.90;45.70;;;;;;;0.16;100.00;97406.02;110271;1242;69108;-69
2023/01/22 03:31:27;;;;;;;63.30;41.90;;;;;;;0.16;100.00;97405.16;110356;1239;59693;-70
2023/01/22 03:33:58;;;;;;;61.10;40.30;;;;;;;0.15;100.00;97403.32;110313;1242;59709;-69
2023/01/22 03:36:29;;;;;;;70.70;48.70;;;;;;;0.14;100.00;97403.02;110476;1241;70624;-70
2023/01/22 03:39:00;;;;;;;57.00;37.80;;;;;;;0.12;100.00;97407.34;110558;1241;69899;-70
2023/01/22 03:41:30;;;;;;;53.30;37.90;;;;;;;0.10;100.00;97405.02;110285;1240;67564;-70
2023/01/22 03:44:02;;;;;;;;;;;;;;;0.09;100.00;97412.09;110315;1242;59706;-69
2023/01/22 03:46:34;;;;;;;62.20;40.40;;;;;;;0.07;100.00;97409.92;110287;1242;59736;-71
2023/01/22 03:49:04;;;;;;;59.30;40.60;;;;;;;0.06;100.00;97400.86;110364;1241;71422;-70
2023/01/22 03:51:35;;;;;;;52.30;37.50;;;;;;;0.06;100.00;97412.37;110271;1241;68750;-70
2023/01/22 03:54:05;;;;;;;;;;;;;;;0.05;100.00;97415.96;110452;1247;69100;-69
2023/01/22 03:56:37;;;;;;;56.90;37.30;;;;;;;0.04;100.00;97414.45;110248;1241;59756;-69
2023/01/22 03:59:14;;;;;;;51.30;34.20;;;;;;;0.04;100.00;97415.98;110260;1242;59630;-69
2023/01/22 04:01:46;;;;;;;48.90;35.70;;;;;;;0.04;100.00;97414.81;110234;1241;71861;-69
2023/01/22 04:04:16;;;;;;;51.00;37.10;;;;;;;0.03;100.00;97416.55;110290;1242;69271;-69
2023/01/22 04:06:47;;;;;;;70.70;44.00;;;;;;;0.02;100.00;97420.36;110469;1241;69124;-69
2023/01/22 04:09:17;;;;;;;;;;;;;;;0.02;100.00;97419.15;110335;1242;59710;-69
2023/01/22 04:11:48;;;;;;;43.10;31.40;;;;;;;0.02;100.00;97430.30;110525;1241;59694;-69
2023/01/22 04:14:19;;;;;;;50.20;33.50;;;;;;;0.01;100.00;97433.23;110310;1242;71423;-69
2023/01/22 04:17:00;;;;;;;62.20;42.60;;;;;;;0.03;100.00;97430.26;110502;1238;68563;-69
2023/01/22 04:19:56;;;;;;;60.40;40.40;;;;;;;0.01;100.00;97428.61;110384;1241;69629;-69
2023/01/22 04:22:59;;;;;;;53.30;36.00;;;;;;;0.02;100.00;97428.06;110465;1241;59660;-71
2023/01/22 04:25:29;;;;;;;51.90;35.10;;;;;;;0.04;100.00;97432.27;110325;1242;59686;-70
2023/01/22 04:27:59;;;;;;;54.40;38.10;;;;;;;0.07;100.00;97431.50;110315;1243;70694;-69
2023/01/22 04:30:31;;;;;;;55.10;37.60;;;;;;;0.11;100.00;97433.27;110294;1241;68961;-69
2023/01/22 04:33:16;;;;;;;56.60;38.00;;;;;;;0.15;100.00;97441.35;110278;1238;69189;-69
2023/01/22 04:36:02;;;;;;;55.50;39.00;;;;;;;0.20;100.00;97444.29;110431;1238;59681;-69
2023/01/22 04:38:32;;;;;;;53.80;36.40;;;;;;;0.23;100.00;97444.54;110350;1242;59691;-70
2023/01/22 04:41:01;;;;;;;52.00;35.20;;;;;;;0.26;100.00;97445.99;110272;1242;71326;-69
2023/01/22 04:43:31;;;;;;;50.90;36.40;;;;;;;0.28;100.00;97456.40;110305;1245;69796;-69
2023/01/22 04:46:04;;;;;;;60.00;40.70;;;;;;;0.30;100.00;97463.01;110486;1240;69111;-69
2023/01/22 04:48:34;;;;;;;51.90;37.10;;;;;;;0.31;100.00;97464.16;110309;1242;60099;-70
2023/01/22 04:51:05;;;;;;;48.70;33.00;;;;;;;0.32;100.00;97470.15;110652;1238;59670;-70
2023/01/22 04:53:35;;;;;;;67.30;43.90;;;;;;;0.33;100.00;97470.99;110409;1241;71431;-70
2023/01/22 04:56:08;;;;;;;60.20;41.20;;;;;;;0.31;100.00;97472.41;110267;1238;68532;-70
2023/01/22 04:58:39;;;;;;;65.10;44.40;;;;;;;0.30;100.00;97475.20;110283;1240;69003;-70
2023/01/22 05:01:10;;;;;;;76.10;50.40;;;;;;;0.27;100.00;97474.95;110293;1242;59706;-70
2023/01/22 05:03:40;;;;;;;67.60;45.90;;;;;;;0.27;100.00;97473.05;110356;1242;59679;-70
2023/01/22 05:06:11;;;;;;;56.60;39.50;;;;;;;0.27;100.00;97478.88;110332;1242;71724;-70
2023/01/22 05:08:41;;;;;;;59.60;42.10;;;;;;;0.26;100.00;97485.75;110294;1238;68281;-70
2023/01/22 05:11:11;;;;;;;54.10;39.50;;;;;;;0.26;100.00;97489.88;110438;1238;69743;-70
2023/01/22 05:13:53;;;;;;;51.80;35.40;;;;;;;0.26;100.00;97497.58;110239;1241;59757;-70
2023/01/22 05:16:23;;;;;;;54.80;37.60;;;;;;;0.25;100.00;97503.78;110396;1240;59678;-70
2023/01/22 05:18:53;;;;;;;47.00;33.70;;;;;;;0.22;100.00;97500.45;110223;1240;71477;-70
2023/01/22 05:21:23;;;;;;;;;;;;;;;0.22;100.00;97505.59;110432;1238;68574;-70
2023/01/22 05:23:53;;;;;;;61.70;41.10;;;;;;;0.22;100.00;97509.70;110287;1242;69555;-70
2023/01/22 05:26:24;;;;;;;54.20;38.50;;;;;;;0.21;100.00;97513.00;110330;1238;59767;-71
2023/01/22 05:28:58;;;;;;;54.70;37.00;;;;;;;0.22;100.00;97516.23;110674;1240;59637;-71
2023/01/22 05:31:44;;;;;;;51.10;36.60;;;;;;;0.21;100.00;97514.02;110726;1238;71386;-70
2023/01/22 05:34:34;;;;;;;40.80;30.30;;;;;;;0.22;100.00;97518.45;110701;1241;67742;-71
2023/01/22 05:37:04;;;;;;;56.50;38.70;;;;;;;0.25;100.00;97516.15;110574;1241;69274;-70
2023/01/22 05:39:35;;;;;;;49.60;35.50;;;;;;;0.26;100.00;97514.04;110293;1238;60066;-71
2023/01/22 05:42:06;;;;;;;59.50;40.60;;;;;;;0.26;100.00;97516.61;110473;1240;59656;-71
2023/01/22 05:44:37;;;;;;;59.30;40.80;;;;;;;0.27;100.00;97528.92;110287;1238;71944;-71
2023/01/22 05:47:05;;;;;;;55.30;40.10;;;;;;;0.27;100.00;97535.45;110257;1238;69065;-71
2023/01/22 05:50:10;;;;;;;56.20;37.60;;;;;;;0.32;100.00;97541.29;109798;1252;69716;-71
2023/01/22 05:52:40;;;;;;;58.50;42.20;;;;;;;0.33;100.00;97542.48;110206;1238;59695;-71
2023/01/22 05:55:09;;;;;;;65.30;44.90;;;;;;;0.34;100.00;97549.82;110480;1239;59749;-70
2023/01/22 05:57:45;;;;;;;65.20;45.50;;;;;;;0.34;100.00;97552.71;110634;1240;72003;-70
2023/01/22 06:00:16;;;;;;;58.20;40.30;;;;;;;0.34;100.00;97561.46;110275;1242;69813;-70
2023/01/22 06:02:47;;;;;;;50.10;36.40;;;;;;;0.35;100.00;97566.41;110280;1242;70048;-72
2023/01/22 06:05:17;;;;;;;62.00;43.00;;;;;;;0.37;100.00;97573.21;110556;1241;59753;-71
2023/01/22 06:07:47;;;;;;;56.10;39.50;;;;;;;0.38;100.00;97568.90;110252;1238;59737;-71
2023/01/22 06:10:18;;;;;;;57.40;37.80;;;;;;;0.39;100.00;97566.83;110305;1242;72282;-71
2023/01/22 06:12:48;;;;;;;53.40;36.80;;;;;;;0.39;100.00;97573.48;110328;1241;69450;-71
2023/01/22 06:15:17;;;;;;;52.70;36.80;;;;;;;0.42;100.00;97575.63;110438;1241;69866;-71
2023/01/22 06:17:50;;;;;;;50.80;36.20;;;;;;;0.45;100.00;97575.53;110284;1242;59723;-70
2023/01/22 06:20:19;;;;;;;50.20;37.50;;;;;;;0.48;100.00;97576.98;110215;1242;59690;-71
2023/01/22 06:22:50;;;;;;;62.30;41.90;;;;;;;0.52;100.00;97580.83;110473;1240;71941;-71
2023/01/22 06:25:19;;;;;;;52.20;36.80;;;;;;;0.55;100.00;97581.95;110450;1241;69216;-71
2023/01/22 06:28:02;;;;;;;61.90;41.20;;;;;;;0.58;100.00;97589.06;110223;1241;69849;-71
2023/01/22 06:30:32;;;;;;;65.90;44.70;;;;;;;0.59;100.00;97602.41;110339;1241;59820;-71
2023/01/22 06:33:02;;;;;;;78.00;50.70;;;;;;;0.50;100.00;97611.23;110370;1241;59641;-71
2023/01/22 06:35:31;;;;;;;72.30;51.00;;;;;;;0.46;100.00;97617.36;110251;1242;70039;-71
2023/01/22 06:38:00;;;;;;;68.20;45.90;;;;;;;0.41;100.00;97623.16;110370;1242;69651;-70
2023/01/22 06:40:31;;;;;;;65.80;42.30;;;;;;;0.31;100.00;97626.36;110383;1241;69918;-70
2023/01/22 06:43:04;;;;;;;65.80;43.80;;;;;;;0.21;100.00;97627.99;110407;1241;59692;-71
2023/01/22 06:45:33;;;;;;;68.60;44.40;;;;;;;0.17;100.00;97628.98;110454;1240;59713;-72
2023/01/22 06:48:05;;;;;;;58.80;40.90;;;;;;;0.19;100.00;97631.86;110404;1241;71849;-70
2023/01/22 06:50:33;;;;;;;58.50;39.70;;;;;;;0.22;100.00;97635.88;110528;1240;69759;-70
2023/01/22 06:53:03;;;;;;;48.80;35.50;;;;;;;0.28;100.00;97635.19;110499;1241;68539;-70
2023/01/22 06:55:32;;;;;;;52.40;35.70;;;;;;;0.35;100.00;97640.30;110372;1242;59736;-70
2023/01/22 06:58:01;;;;;;;59.10;41.60;;;;;;;0.41;100.00;97642.71;110257;1242;59749;-70
2023/01/22 07:00:30;;;;;;;56.50;40.20;;;;;;;0.46;100.00;97646.32;110533;1241;71213;-70
2023/01/22 07:02:59;;;;;;;59.20;39.90;;;;;;;0.51;100.00;97653.73;110406;1242;69220;-70
2023/01/22 07:05:28;;;;;;;76.90;50.70;;;;;;;0.56;100.00;97664.77;110422;1248;69851;-70
2023/01/22 07:07:57;;;;;;;93.70;60.80;;;;;;;0.58;100.00;97675.52;110368;1241;59698;-70
2023/01/22 07:10:26;;;;;;;62.20;42.80;;;;;;;0.56;100.00;97686.19;110495;1241;59656;-70
2023/01/22 07:12:57;;;;;;;60.80;40.50;;;;;;;0.49;100.00;97695.98;110431;1238;71957;-70
2023/01/22 07:15:26;;;;;;;59.30;40.10;;;;;;;0.46;100.00;97693.65;110330;1242;69821;-70
2023/01/22 07:17:55;;;;;;;52.60;35.80;;;;;;;0.50;100.00;97693.05;110418;1240;69682;-70
2023/01/22 07:20:24;;;;;;;53.60;38.00;;;;;;;0.54;100.00;97693.44;110535;1238;59775;-70
2023/01/22 07:22:56;;;;;;;49.20;35.90;;;;;;;0.62;100.00;97699.91;110241;1238;59778;-70
2023/01/22 07:25:27;;;;;;;59.80;41.50;;;;;;;0.71;100.00;97700.31;110508;1241;71448;-70
2023/01/22 07:28:03;;;;;;;56.00;41.10;;;;;;;0.80;100.00;97702.98;110454;1238;69174;-70
2023/01/22 07:30:33;;;;;;;55.60;38.60;;;;;;;0.86;100.00;97707.45;110364;1240;68532;-70
2023/01/22 07:33:03;;;;;;;68.70;46.20;;;;;;;0.90;100.00;97708.52;110234;1242;59686;-69
2023/01/22 07:35:32;;;;;;;62.60;44.10;;;;;;;0.95;100.00;97714.39;110526;1242;59628;-70
2023/01/22 07:38:01;;;;;;;62.90;44.30;;;;;;;1.00;100.00;97714.92;110433;1238;71253;-69
2023/01/22 07:40:30;;;;;;;61.10;42.00;;;;;;;1.08;100.00;97716.41;110475;1241;69190;-70
2023/01/22 07:43:04;;;;;;;54.90;38.40;;;;;;;1.14;100.00;97713.66;110515;1238;69840;-70
2023/01/22 07:45:34;;;;;;;47.20;31.90;;;;;;;1.20;100.00;97719.29;110269;1238;59770;-70
2023/01/22 07:48:06;;;;;;;60.90;43.70;;;;;;;1.27;100.00;97725.80;110437;1238;60079;-70
2023/01/22 07:50:38;;;;;;;47.60;34.40;;;;;;;1.35;100.00;97730.70;110454;1247;71805;-69
2023/01/22 07:53:10;;;;;;;64.60;43.90;;;;;;;1.72;100.00;97737.77;110386;1240;69399;-70
2023/01/22 07:55:39;;;;;;;54.00;38.80;;;;;;;1.78;100.00;97744.45;110403;1240;69272;-70
2023/01/22 07:58:09;;;;;;;51.00;37.80;;;;;;;1.79;100.00;97750.77;110408;1241;59690;-71
2023/01/22 08:00:38;;;;;;;54.80;40.80;;;;;;;1.85;100.00;97749.56;110404;1241;59747;-71
2023/01/22 08:03:09;;;;;;;54.70;40.30;;;;;;;1.88;100.00;97749.98;110333;1238;69851;-71
2023/01/22 08:05:39;;;;;;;48.70;34.90;;;;;;;1.93;100.00;97757.20;110270;1238;69222;-71
2023/01/22 08:08:16;;;;;;;48.00;36.30;;;;;;;1.99;100.00;97759.77;110390;1241;69830;-71
2023/01/22 08:10:45;;;;;;;45.50;34.10;;;;;;;2.03;100.00;97761.34;110401;1240;59632;-69
2023/01/22 08:13:14;;;;;;;45.30;34.40;;;;;;;2.10;100.00;97763.19;110553;1241;59720;-69
2023/01/22 08:15:43;;;;;;;44.80;32.90;;;;;;;2.16;100.00;97765.91;110440;1238;70443;-70
2023/01/22 08:18:12;;;;;;;44.30;29.70;;;;;;;2.23;100.00;97767.03;110511;1240;69730;-70
2023/01/22 08:20:41;;;;;;;47.60;31.80;;;;;;;2.29;100.00;97770.94;110400;1241;69731;-70
2023/01/22 08:23:10;;;;;;;38.90;27.50;;;;;;;2.35;100.00;97773.50;110530;1241;59660;-71
2023/01/22 08:25:39;;;;;;;36.50;26.40;;;;;;;2.39;100.00;97774.77;110574;1241;59730;-71
2023/01/22 08:28:07;;;;;;;41.60;29.70;;;;;;;2.42;100.00;97780.14;110670;1241;71386;-70
2023/01/22 08:30:37;;;;;;;34.10;26.00;;;;;;;2.45;100.00;97781.76;110475;1238;69525;-70
2023/01/22 08:33:14;;;;;;;32.30;23.40;;;;;;;2.53;100.00;97784.08;110504;1238;69158;-70
2023/01/22 08:35:44;;;;;;;33.10;25.60;;;;;;;2.63;100.00;97780.14;110576;1238;59728;-70
2023/01/22 08:38:12;;;;;;;37.10;28.00;;;;;;;2.71;100.00;97784.13;110557;1238;59666;-70
2023/01/22 08:40:41;;;;;;;34.80;27.30;;;;;;;2.81;100.00;97789.27;110452;1242;70989;-70
2023/01/22 08:43:10;;;;;;;40.10;31.80;;;;;;;2.93;100.00;97787.80;110392;1238;70012;-70
2023/01/22 08:45:38;;;;;;;43.40;32.80;;;;;;;3.07;100.00;97790.40;110465;1240;69534;-70
2023/01/22 08:48:07;;;;;;;40.80;31.80;;;;;;;3.22;100.00;97793.13;110484;1241;59814;-70
2023/01/22 08:50:36;;;;;;;46.80;36.10;;;;;;;3.38;100.00;97796.48;110408;1240;60088;-70
2023/01/22 08:53:05;;;;;;;48.60;37.80;;;;;;;3.55;100.00;97790.17;110506;1240;70895;-70
2023/01/22 08:55:34;;;;;;;47.60;36.70;;;;;;;3.73;100.00;97789.80;110391;1240;69228;-70
2023/01/22 08:58:03;;;;;;;47.20;37.70;;;;;;;3.95;100.00;97795.29;110534;1241;69282;-70
2023/01/22 09:00:31;;;;;;;53.80;42.30;;;;;;;4.21;100.00;97790.29;110350;1242;59801;-70
2023/01/22 09:03:00;;;;;;;49.40;39.30;;;;;;;4.41;100.00;97787.02;110383;1240;59695;-70
2023/01/22 09:05:29;;;;;;;46.40;37.30;;;;;;;4.59;99.78;97784.02;110391;1239;72028;-70
2023/01/22 09:07:57;;;;;;;59.50;47.10;;;;;;;4.72;99.45;97782.10;110228;1242;69584;-71
2023/01/22 09:10:27;;;;;;;67.50;50.20;;;;;;;4.80;100.00;97782.09;110434;1248;70250;-70
2023/01/22 09:12:59;;;;;;;64.80;50.60;;;;;;;4.76;99.59;97782.09;110554;1238;60230;-70
2023/01/22 09:15:28;;;;;;;54.50;45.00;;;;;;;4.76;99.41;97780.35;110419;1241;59702;-70
2023/01/22 09:17:59;;;;;;;46.70;38.20;;;;;;;4.75;98.79;97783.16;110393;1238;71475;-70
2023/01/22 09:20:28;;;;;;;49.70;42.00;;;;;;;4.70;97.40;97785.64;110397;1238;69028;-70
2023/01/22 09:22:57;;;;;;;57.60;45.10;;;;;;;4.70;96.95;97788.91;110454;1238;68533;-70
2023/01/22 09:25:26;;;;;;;49.10;38.90;;;;;;;4.72;97.36;97790.36;110392;1240;59689;-72
2023/01/22 09:27:59;;;;;;;64.10;50.00;;;;;;;4.78;98.45;97789.27;110500;1238;59708;-71
2023/01/22 09:30:29;;;;;;;64.80;49.10;;;;;;;4.85;99.89;97794.63;110418;1240;71159;-70
2023/01/22 09:32:58;;;;;;;64.50;50.20;;;;;;;4.96;98.81;97793.98;110513;1241;69812;-70
2023/01/22 09:35:27;;;;;;;55.00;46.10;;;;;;;5.02;97.78;97790.94;110422;1238;70069;-70
2023/01/22 09:37:56;;;;;;;50.50;41.90;;;;;;;5.12;97.03;97789.83;110301;1242;59692;-71
2023/01/22 09:40:34;;;;;;;52.50;42.70;;;;;;;5.22;96.73;97794.73;110574;1240;59731;-70
2023/01/22 09:43:30;;;;;;;43.40;36.10;;;;;;;5.32;96.78;97802.35;110503;1241;71819;-70
2023/01/22 09:46:11;;;;;;;38.60;30.70;;;;;;;5.42;97.88;97805.21;110503;1238;70019;-70
2023/01/22 09:48:44;;;;;;;40.40;33.90;;;;;;;5.53;97.75;97802.95;110447;1241;69301;-70
2023/01/22 09:51:14;;;;;;;37.80;31.10;;;;;;;5.63;97.62;97802.89;110354;1241;59766;-70
2023/01/22 09:53:55;;;;;;;40.30;31.90;;;;;;;5.75;97.77;97800.27;110517;1240;59741;-70
2023/01/22 09:56:45;;;;;;;40.20;31.50;;;;;;;5.83;98.13;97803.15;110546;1242;71774;-70
2023/01/22 09:59:18;;;;;;;33.80;28.20;;;;;;;5.88;97.59;97803.08;110405;1238;69149;-70
2023/01/22 10:01:59;;;;;;;40.00;34.10;;;;;;;5.87;97.25;97804.13;110360;1238;69126;-70
2023/01/22 10:04:40;;;;;;;42.40;34.40;;;;;;;5.92;97.71;97803.41;110519;1238;59740;-70
2023/01/22 10:07:21;;;;;;;44.40;34.20;;;;;;;6.02;97.74;97804.01;110312;1238;59708;-70
2023/01/22 10:10:00;;;;;;;37.70;31.10;;;;;;;6.06;97.67;97803.59;110551;1238;71581;-70
2023/01/22 10:12:29;;;;;;;43.30;33.00;;;;;;;6.12;97.24;97803.14;110435;1241;69024;-70
2023/01/22 10:14:58;;;;;;;37.30;29.00;;;;;;;6.18;97.38;97803.05;110438;1241;69843;-70
2023/01/22 10:17:33;;;;;;;41.60;33.50;;;;;;;6.26;97.47;97800.92;110406;1238;60126;-69
2023/01/22 10:20:06;;;;;;;41.30;33.70;;;;;;;6.32;97.41;97804.45;110384;1238;59615;-71
2023/01/22 10:22:35;;;;;;;45.50;38.30;;;;;;;6.43;97.63;97803.55;110393;1238;70522;-69
2023/01/22 10:25:04;;;;;;;40.30;33.70;;;;;;;6.50;97.08;97808.74;110387;1242;69797;-70
2023/01/22 10:27:40;;;;;;;41.40;34.30;;;;;;;6.56;96.28;97804.77;110458;1240;69069;-70
2023/01/22 10:30:24;;;;;;;43.50;35.80;;;;;;;6.52;94.69;97800.98;110497;1238;59654;-70
2023/01/22 10:33:06;;;;;;;41.10;33.30;;;;;;;6.59;95.15;97800.46;110386;1240;59691;-70
2023/01/22 10:35:43;;;;;;;41.70;34.20;;;;;;;6.63;95.28;97801.45;110417;1240;71800;-71
2023/01/22 10:38:26;;;;;;;42.80;33.50;;;;;;;6.68;95.50;97805.79;110374;1247;69162;-69
2023/01/22 10:41:00;;;;;;;38.30;32.80;;;;;;;6.72;95.78;97806.91;110373;1241;69081;-70
2023/01/22 10:43:34;;;;;;;36.80;32.50;;;;;;;6.81;95.23;97799.16;110524;1240;59685;-70
2023/01/22 10:46:14;;;;;;;35.70;30.10;;;;;;;6.94;95.65;97799.05;110527;1238;59730;-70
2023/01/22 10:48:43;;;;;;;38.30;32.50;;;;;;;7.07;95.64;97794.20;110374;1239;71262;-70
2023/01/22 10:51:21;;;;;;;37.30;31.10;;;;;;;7.24;94.66;97799.89;110584;1238;69819;-70
2023/01/22 10:53:54;;;;;;;34.80;29.00;;;;;;;7.46;93.64;97796.78;110479;1239;69708;-71
2023/01/22 10:56:35;;;;;;;32.70;26.60;;;;;;;7.72;94.28;97801.12;110413;1238;59716;-72
2023/01/22 10:59:27;;;;;;;38.00;31.00;;;;;;;7.98;92.27;97802.60;110366;1242;59719;-71
2023/01/22 11:02:15;;;;;;;34.90;29.10;;;;;;;8.21;89.63;97795.90;110543;1241;69797;-70
2023/01/22 11:04:44;;;;;;;38.00;31.10;;;;;;;8.53;89.18;97792.89;110488;1239;69818;-70
2023/01/22 11:07:18;;;;;;;34.60;30.80;;;;;;;8.84;87.64;97790.05;110341;1240;69195;-69
2023/01/22 11:09:55;;;;;;;32.50;27.70;;;;;;;9.25;86.26;97785.79;110430;1240;60024;-69
2023/01/22 11:12:30;;;;;;;37.60;32.50;;;;;;;9.67;84.80;97786.15;110416;1240;59673;-70
2023/01/22 11:15:25;;;;;;;33.20;29.60;;;;;;;10.02;83.27;97785.42;110433;1238;72296;-71
2023/01/22 11:18:01;;;;;;;34.40;30.60;;;;;;;10.27;83.07;97790.65;110313;1238;69256;-71
2023/01/22 11:20:53;;;;;;;34.60;30.20;;;;;;;10.35;82.17;97792.92;110491;1246;69185;-69
2023/01/22 11:24:03;;;;;;;35.00;29.60;;;;;;;10.37;81.07;97792.11;110555;1246;59686;-69
2023/01/22 11:27:07;;;;;;;36.80;32.50;;;;;;;10.24;81.66;97790.50;110556;1238;59701;-70
2023/01/22 11:30:08;;;;;;;32.90;29.00;;;;;;;9.96;82.95;97789.31;110469;1240;72219;-71
2023/01/22 11:32:50;;;;;;;33.60;28.70;;;;;;;9.72;82.22;97783.70;110548;1241;69968;-70
2023/01/22 11:35:53;;;;;;;35.30;30.50;;;;;;;9.57;83.22;97790.95;110403;1242;69346;-69
2023/01/22 11:38:46;;;;;;;34.90;31.00;;;;;;;9.50;84.59;97796.23;110471;1240;59657;-69
2023/01/22 11:41:30;;;;;;;39.50;33.80;;;;;;;9.37;85.33;97800.48;110384;1241;59737;-69
2023/01/22 11:44:35;;;;;;;42.50;36.10;;;;;;;9.12;85.43;97797.38;110426;1240;71297;-71
2023/01/22 11:47:28;;;;;;;38.20;31.60;;;;;;;8.79;87.39;97794.68;110394;1241;69201;-71